createdAt,value
2018-09-01T00:01:36.345Z,59.65
2018-09-01T00:04:05.385Z,59.58
2018-09-01T00:06:34.372Z,59.54
2018-09-01T00:09:04.564Z,59.48
2018-09-01T00:11:33.808Z,59.31
2018-09-01T00:14:02.807Z,59.31
2018-09-01T00:16:31.983Z,59.40
2018-09-01T00:19:00.995Z,59.53
2018-09-01T00:21:30.020Z,59.46
2018-09-01T00:24:02.269Z,59.60
2018-09-01T00:26:31.279Z,59.68
2018-09-01T00:29:00.252Z,59.87
2018-09-01T00:31:29.263Z,59.78
2018-09-01T00:33:58.259Z,59.76
2018-09-01T00:36:27.269Z,59.78
2018-09-01T00:39:02.512Z,59.73
2018-09-01T00:41:32.904Z,59.76
2018-09-01T00:44:01.973Z,59.76
2018-09-01T00:46:31.412Z,59.67
2018-09-01T00:49:00.453Z,60.00
2018-09-01T00:51:29.432Z,60.04
2018-09-01T00:53:58.473Z,60.15
2018-09-01T00:56:28.560Z,60.28
2018-09-01T00:58:57.638Z,60.41
2018-09-01T01:01:26.664Z,60.35
2018-09-01T01:03:55.683Z,60.41
2018-09-01T01:06:24.746Z,60.56
2018-09-01T01:08:53.788Z,60.40
2018-09-01T01:11:22.912Z,60.43
2018-09-01T01:13:51.928Z,60.70
2018-09-01T01:16:20.897Z,60.78
2018-09-01T01:18:49.927Z,60.77
2018-09-01T01:21:18.920Z,60.83
2018-09-01T01:23:47.953Z,60.89
2018-09-01T01:26:17.121Z,61.03
2018-09-01T01:28:46.336Z,61.06
2018-09-01T01:31:15.376Z,61.21
2018-09-01T01:33:44.397Z,61.36
2018-09-01T01:36:13.555Z,61.37
2018-09-01T01:38:42.570Z,61.61
2018-09-01T01:41:11.662Z,61.61
2018-09-01T01:43:40.731Z,61.61
2018-09-01T01:46:09.741Z,61.51
2018-09-01T01:48:38.757Z,61.67
2018-09-01T01:51:07.772Z,61.80
2018-09-01T01:53:36.801Z,62.04
2018-09-01T01:56:06.869Z,62.05
2018-09-01T01:58:35.847Z,62.09
2018-09-01T02:01:04.849Z,62.19
2018-09-01T02:03:33.944Z,62.25
2018-09-01T02:06:02.957Z,62.39
2018-09-01T02:08:31.962Z,62.37
2018-09-01T02:11:00.971Z,62.83
2018-09-01T02:13:29.969Z,62.85
2018-09-01T02:15:58.969Z,62.98
2018-09-01T02:18:28.064Z,63.05
2018-09-01T02:20:57.104Z,63.27
2018-09-01T02:23:26.807Z,63.19
2018-09-01T02:25:55.859Z,63.30
2018-09-01T02:28:25.687Z,63.30
2018-09-01T02:30:54.801Z,63.84
2018-09-01T02:33:23.922Z,64.01
2018-09-01T02:35:53.014Z,64.15
2018-09-01T02:38:22.011Z,64.11
2018-09-01T02:40:51.076Z,64.30
2018-09-01T02:43:20.133Z,64.49
2018-09-01T02:45:49.196Z,64.51
2018-09-01T02:48:18.299Z,64.57
2018-09-01T02:50:47.436Z,64.82
2018-09-01T02:53:16.631Z,65.14
2018-09-01T02:55:45.959Z,65.24
2018-09-01T02:58:15.033Z,65.33
2018-09-01T03:00:44.059Z,65.51
2018-09-01T03:03:13.144Z,65.64
2018-09-01T03:05:42.095Z,65.87
2018-09-01T03:08:11.080Z,66.12
2018-09-01T03:10:40.143Z,66.15
2018-09-01T03:13:09.137Z,65.70
2018-09-01T03:15:38.183Z,66.15
2018-09-01T03:18:07.235Z,66.18
2018-09-01T03:20:36.292Z,66.14
2018-09-01T03:23:05.344Z,66.15
2018-09-01T03:25:34.352Z,66.15
2018-09-01T03:28:03.325Z,66.17
2018-09-01T03:30:32.502Z,66.24
2018-09-01T03:33:01.707Z,66.38
2018-09-01T03:35:30.742Z,66.25
2018-09-01T03:37:59.919Z,66.08
2018-09-01T03:40:29.056Z,66.17
2018-09-01T03:42:58.017Z,66.20
2018-09-01T03:45:27.111Z,66.10
2018-09-01T03:47:56.372Z,66.11
2018-09-01T03:50:25.415Z,66.13
2018-09-01T03:52:54.438Z,66.11
2018-09-01T03:55:23.451Z,66.17
2018-09-01T03:57:52.580Z,66.20
2018-09-01T04:00:25.657Z,66.30
2018-09-01T04:02:54.903Z,66.37
2018-09-01T04:05:23.915Z,66.52
2018-09-01T04:07:53.255Z,66.15
2018-09-01T04:10:22.558Z,66.14
2018-09-01T04:12:51.575Z,66.22
2018-09-01T04:15:20.601Z,66.15
2018-09-01T04:17:49.644Z,66.10
2018-09-01T04:20:18.705Z,66.13
2018-09-01T04:22:47.731Z,66.10
2018-09-01T04:25:16.736Z,66.39
2018-09-01T04:27:45.732Z,66.44
2018-09-01T04:30:14.828Z,66.42
2018-09-01T04:32:43.830Z,66.45
2018-09-01T04:35:12.955Z,66.55
2018-09-01T04:37:41.952Z,66.54
2018-09-01T04:40:11.051Z,66.71
2018-09-01T04:42:40.073Z,66.60
2018-09-01T04:45:09.153Z,66.68
2018-09-01T04:47:38.250Z,67.03
2018-09-01T04:50:07.369Z,67.03
2018-09-01T04:52:36.432Z,66.94
2018-09-01T04:55:05.533Z,67.22
2018-09-01T04:57:34.610Z,67.50
2018-09-01T05:00:03.728Z,67.61
2018-09-01T05:02:32.731Z,67.85
2018-09-01T05:05:01.876Z,68.07
2018-09-01T05:07:31.055Z,67.82
2018-09-01T05:10:00.040Z,67.87
2018-09-01T05:12:29.094Z,67.87
2018-09-01T05:14:58.130Z,68.13
2018-09-01T05:17:27.256Z,67.95
2018-09-01T05:19:56.837Z,67.97
2018-09-01T05:22:25.844Z,68.12
2018-09-01T05:24:54.962Z,68.14
2018-09-01T05:27:24.048Z,68.10
2018-09-01T05:29:53.213Z,68.13
2018-09-01T05:32:22.237Z,68.28
2018-09-01T05:34:51.333Z,68.27
2018-09-01T05:37:20.385Z,68.55
2018-09-01T05:39:49.412Z,68.65
2018-09-01T05:42:18.449Z,68.68
2018-09-01T05:44:47.525Z,68.75
2018-09-01T05:47:16.535Z,68.43
2018-09-01T05:49:45.599Z,68.78
2018-09-01T05:52:14.593Z,68.61
2018-09-01T05:54:43.614Z,68.82
2018-09-01T05:57:12.622Z,68.87
2018-09-01T05:59:41.617Z,69.05
2018-09-01T06:02:10.670Z,69.25
2018-09-01T06:04:39.704Z,69.19
2018-09-01T06:07:08.807Z,69.04
2018-09-01T06:09:37.826Z,69.28
2018-09-01T06:12:06.858Z,69.47
2018-09-01T06:14:35.855Z,69.48
2018-09-01T06:17:05.418Z,69.54
2018-09-01T06:19:35.278Z,69.58
2018-09-01T06:22:04.389Z,69.37
2018-09-01T06:24:33.409Z,69.49
2018-09-01T06:27:07.313Z,69.46
2018-09-01T06:29:36.390Z,69.59
2018-09-01T06:32:07.093Z,69.57
2018-09-01T06:34:36.151Z,69.76
2018-09-01T06:37:05.314Z,69.72
2018-09-01T06:39:34.858Z,69.67
2018-09-01T06:42:04.323Z,69.67
2018-09-01T06:44:33.548Z,69.65
2018-09-01T06:47:02.597Z,69.79
2018-09-01T06:49:31.897Z,69.65
2018-09-01T06:52:00.981Z,69.60
2018-09-01T06:54:30.009Z,69.57
2018-09-01T06:56:59.558Z,69.53
2018-09-01T06:59:28.713Z,69.39
2018-09-01T07:01:57.848Z,69.57
2018-09-01T07:04:26.907Z,69.53
2018-09-01T07:06:55.898Z,69.46
2018-09-01T07:09:24.895Z,69.57
2018-09-01T07:11:53.906Z,69.58
2018-09-01T07:14:22.924Z,69.82
2018-09-01T07:16:52.029Z,69.79
2018-09-01T07:19:21.044Z,69.67
2018-09-01T07:21:50.093Z,69.71
2018-09-01T07:24:19.176Z,69.54
2018-09-01T07:26:48.314Z,69.42
2018-09-01T07:29:17.793Z,69.39
2018-09-01T07:31:47.011Z,69.37
2018-09-01T07:34:16.880Z,69.38
2018-09-01T07:36:46.396Z,69.35
2018-09-01T07:39:16.509Z,69.28
2018-09-01T07:41:46.931Z,69.13
2018-09-01T07:44:26.710Z,69.07
2018-09-01T07:46:56.158Z,69.14
2018-09-01T07:49:25.185Z,68.94
2018-09-01T07:51:54.734Z,68.90
2018-09-01T07:54:23.853Z,68.63
2018-09-01T07:56:52.873Z,68.74
2018-09-01T07:59:22.080Z,68.68
2018-09-01T08:01:52.406Z,68.70
2018-09-01T08:04:45.019Z,68.76
2018-09-01T08:07:14.395Z,68.70
2018-09-01T08:09:43.551Z,68.89
2018-09-01T08:12:12.561Z,68.60
2018-09-01T08:14:41.787Z,68.71
2018-09-01T08:17:10.785Z,68.64
2018-09-01T08:19:39.997Z,68.65
2018-09-01T08:22:09.174Z,68.56
2018-09-01T08:24:38.259Z,68.50
2018-09-01T08:27:07.389Z,68.20
2018-09-01T08:29:36.415Z,68.17
2018-09-01T08:32:05.518Z,68.00
2018-09-01T08:34:34.685Z,67.99
2018-09-01T08:37:03.859Z,67.55
2018-09-01T08:39:33.141Z,67.40
2018-09-01T08:42:02.340Z,67.17
2018-09-01T08:44:31.481Z,67.08
2018-09-01T08:47:00.611Z,66.85
2018-09-01T08:49:29.774Z,66.70
2018-09-01T08:51:58.891Z,66.47
2018-09-01T08:54:28.016Z,66.32
2018-09-01T08:56:57.112Z,66.16
2018-09-01T08:59:26.368Z,65.86
2018-09-01T09:01:55.563Z,65.60
2018-09-01T09:04:24.688Z,65.50
2018-09-01T09:06:53.901Z,65.52
2018-09-01T09:09:23.085Z,65.23
2018-09-01T09:11:52.199Z,65.00
2018-09-01T09:14:21.266Z,64.65
2018-09-01T09:16:51.572Z,64.39
2018-09-01T09:19:20.811Z,64.20
2018-09-01T09:21:49.896Z,64.13
2018-09-01T09:24:19.641Z,63.89
2018-09-01T09:26:48.960Z,63.41
2018-09-01T09:29:18.025Z,63.68
2018-09-01T09:31:47.148Z,63.40
2018-09-01T09:34:17.390Z,63.20
2018-09-01T09:36:46.520Z,62.65
2018-09-01T09:39:15.686Z,62.55
2018-09-01T09:41:46.270Z,62.44
2018-09-01T09:44:15.618Z,62.04
2018-09-01T09:46:45.582Z,62.26
2018-09-01T09:49:15.501Z,62.07
2018-09-01T09:51:45.263Z,61.97
2018-09-01T09:54:14.373Z,61.68
2018-09-01T09:56:43.575Z,61.89
2018-09-01T09:59:13.054Z,61.51
2018-09-01T10:01:42.746Z,61.63
2018-09-01T10:04:13.301Z,61.00
2018-09-01T10:06:43.288Z,61.39
2018-09-01T10:09:14.925Z,60.64
2018-09-01T10:11:46.220Z,60.41
2018-09-01T10:14:18.114Z,60.78
2018-09-01T10:16:48.015Z,60.64
2018-09-01T10:19:17.293Z,60.64
2018-09-01T10:21:46.841Z,60.62
2018-09-01T10:24:15.972Z,60.28
2018-09-01T10:26:45.326Z,60.19
2018-09-01T10:29:14.681Z,60.27
2018-09-01T10:31:44.081Z,60.53
2018-09-01T10:34:13.269Z,60.38
2018-09-01T10:36:43.220Z,60.32
2018-09-01T10:39:13.129Z,60.27
2018-09-01T10:41:43.332Z,60.20
2018-09-01T10:44:14.064Z,60.03
2018-09-01T10:46:43.160Z,60.41
2018-09-01T10:49:12.417Z,59.93
2018-09-01T10:51:44.945Z,59.89
2018-09-01T10:54:14.053Z,60.22
2018-09-01T10:56:43.184Z,60.11
2018-09-01T10:59:12.373Z,59.76
2018-09-01T11:01:41.489Z,59.74
2018-09-01T11:04:10.774Z,59.90
2018-09-01T11:06:40.051Z,59.72
2018-09-01T11:09:11.248Z,59.38
2018-09-01T11:11:40.390Z,59.55
2018-09-01T11:14:13.729Z,59.69
2018-09-01T11:16:42.900Z,59.42
2018-09-01T11:19:12.665Z,59.27
2018-09-01T11:21:43.603Z,59.18
2018-09-01T11:24:13.380Z,59.50
2018-09-01T11:26:42.544Z,59.16
2018-09-01T11:29:11.949Z,59.11
2018-09-01T11:31:41.129Z,59.48
2018-09-01T11:34:10.370Z,59.50
2018-09-01T11:36:40.488Z,59.08
2018-09-01T11:39:11.005Z,59.29
2018-09-01T11:41:41.605Z,59.33
2018-09-01T11:44:10.720Z,59.18
2018-09-01T11:46:40.763Z,59.13
2018-09-01T11:49:10.043Z,59.37
2018-09-01T11:51:40.153Z,58.99
2018-09-01T11:54:09.511Z,59.17
2018-09-01T11:56:44.429Z,59.07
2018-09-01T11:59:14.734Z,59.35
2018-09-01T12:01:44.607Z,59.24
2018-09-01T12:04:13.821Z,59.08
2018-09-01T12:06:44.745Z,59.05
2018-09-01T12:09:16.628Z,58.95
2018-09-01T12:11:46.294Z,58.82
2018-09-01T12:14:15.644Z,59.24
2018-09-01T12:16:44.689Z,59.14
2018-09-01T12:19:13.856Z,58.68
2018-09-01T12:21:43.170Z,58.73
2018-09-01T12:24:12.226Z,58.52
2018-09-01T12:26:44.433Z,58.48
2018-09-01T12:29:13.761Z,58.37
2018-09-01T12:31:43.711Z,58.78
2018-09-01T12:34:12.888Z,58.79
2018-09-01T12:36:42.608Z,58.34
2018-09-01T12:39:11.786Z,58.51
2018-09-01T12:41:41.120Z,58.75
2018-09-01T12:46:45.122Z,58.88
2018-09-01T12:49:15.268Z,58.34
2018-09-01T12:51:45.708Z,58.26
2018-09-01T12:54:14.932Z,58.29
2018-09-01T12:56:48.790Z,58.29
2018-09-01T12:59:18.515Z,58.31
2018-09-01T13:01:47.576Z,58.71
2018-09-01T13:04:16.795Z,58.23
2018-09-01T13:06:46.169Z,58.42
2018-09-01T13:09:16.301Z,58.26
2018-09-01T13:11:45.519Z,58.28
2018-09-01T13:14:14.774Z,58.30
2018-09-01T13:16:44.026Z,58.22
2018-09-01T13:19:13.173Z,58.74
2018-09-01T13:21:42.298Z,58.39
2018-09-01T13:24:11.325Z,58.65
2018-09-01T13:26:41.835Z,58.43
2018-09-01T13:29:11.101Z,58.41
2018-09-01T13:31:40.373Z,58.79
2018-09-01T13:34:09.747Z,58.83
2018-09-01T13:36:43.052Z,58.97
2018-09-01T13:39:12.463Z,59.07
2018-09-01T13:41:43.616Z,58.97
2018-09-01T13:44:15.715Z,59.05
2018-09-01T13:46:45.043Z,59.07
2018-09-01T13:49:14.403Z,58.87
2018-09-01T13:51:43.858Z,59.19
2018-09-01T13:54:13.147Z,59.13
2018-09-01T13:56:43.109Z,59.24
2018-09-01T13:59:12.216Z,59.38
2018-09-01T14:01:41.870Z,59.25
2018-09-01T14:04:11.342Z,58.99
2018-09-01T14:06:41.526Z,59.56
2018-09-01T14:09:11.432Z,59.24
2018-09-01T14:11:40.749Z,59.22
2018-09-01T14:14:09.885Z,59.04
2018-09-01T14:16:39.044Z,59.41
2018-09-01T14:19:09.392Z,59.77
2018-09-01T14:21:38.581Z,59.32
2018-09-01T14:24:07.867Z,59.34
2018-09-01T14:26:37.322Z,59.52
2018-09-01T14:29:06.937Z,59.32
2018-09-01T14:31:36.638Z,59.20
2018-09-01T14:34:05.926Z,59.71
2018-09-01T14:36:35.605Z,59.23
2018-09-01T14:39:06.334Z,59.04
2018-09-01T14:41:37.142Z,59.35
2018-09-01T14:44:06.264Z,59.10
2018-09-01T14:46:41.494Z,58.81
2018-09-01T14:49:10.554Z,58.79
2018-09-01T14:51:40.610Z,58.46
2018-09-01T14:54:09.931Z,58.32
2018-09-01T14:56:41.883Z,58.67
2018-09-01T14:59:12.336Z,58.16
2018-09-01T15:01:42.387Z,57.87
2018-09-01T15:04:11.703Z,58.05
2018-09-01T15:06:41.187Z,57.81
2018-09-01T15:09:10.434Z,57.69
2018-09-01T15:11:39.648Z,57.71
2018-09-01T15:14:09.389Z,58.09
2018-09-01T15:16:38.623Z,58.31
2018-09-01T15:19:09.547Z,58.17
2018-09-01T15:21:38.932Z,58.59
2018-09-01T15:24:08.487Z,58.08
2018-09-01T15:26:38.379Z,58.13
2018-09-01T15:29:09.716Z,58.10
2018-09-01T15:31:39.664Z,58.10
2018-09-01T15:34:08.908Z,58.42
2018-09-01T15:36:37.976Z,58.62
2018-09-01T15:39:07.495Z,58.59
2018-09-01T15:41:36.740Z,58.75
2018-09-01T15:44:05.905Z,59.21
2018-09-01T15:46:35.059Z,59.25
2018-09-01T15:49:04.420Z,59.01
2018-09-01T15:51:33.647Z,59.46
2018-09-01T15:54:02.814Z,59.27
2018-09-01T15:56:32.353Z,59.20
2018-09-01T15:59:01.597Z,59.45
2018-09-01T16:03:58.489Z,59.44
2018-09-01T16:06:27.531Z,59.11
2018-09-01T16:08:58.520Z,59.37
2018-09-01T16:11:28.155Z,59.21
2018-09-01T16:13:57.156Z,59.54
2018-09-01T16:16:26.275Z,59.47
2018-09-01T16:18:55.326Z,59.78
2018-09-01T16:21:24.584Z,59.57
2018-09-01T16:23:53.629Z,59.57
2018-09-01T16:26:22.819Z,59.67
2018-09-01T16:28:51.832Z,59.71
2018-09-01T16:31:20.987Z,59.33
2018-09-01T16:33:50.101Z,59.33
2018-09-01T16:36:19.956Z,59.68
2018-09-01T16:38:49.024Z,59.38
2018-09-01T16:41:18.753Z,59.43
2018-09-01T16:44:02.560Z,59.40
2018-09-01T16:46:31.757Z,59.47
2018-09-01T16:49:00.832Z,59.97
2018-09-01T16:51:29.928Z,60.05
2018-09-01T16:53:59.845Z,60.35
2018-09-01T16:56:28.930Z,60.21
2018-09-01T16:59:00.833Z,60.04
2018-09-01T17:01:31.045Z,60.19
2018-09-01T17:04:00.185Z,60.56
2018-09-01T17:06:29.247Z,60.74
2018-09-01T17:08:58.254Z,60.45
2018-09-01T17:11:34.073Z,60.47
2018-09-01T17:14:03.189Z,60.88
2018-09-01T17:16:33.492Z,60.77
2018-09-01T17:19:02.901Z,60.63
2018-09-01T17:21:32.100Z,60.71
2018-09-01T17:24:01.864Z,60.36
2018-09-01T17:26:30.965Z,60.56
2018-09-01T17:29:00.134Z,60.58
2018-09-01T17:31:30.267Z,60.58
2018-09-01T17:34:00.374Z,60.64
2018-09-01T17:36:29.504Z,61.07
2018-09-01T17:38:59.664Z,60.82
2018-09-01T17:41:28.741Z,60.77
2018-09-01T17:43:57.768Z,61.09
2018-09-01T17:46:26.841Z,60.67
2018-09-01T17:48:56.920Z,61.22
2018-09-01T17:51:26.570Z,61.29
2018-09-01T17:53:55.828Z,61.01
2018-09-01T17:56:25.247Z,60.90
2018-09-01T17:58:54.499Z,61.02
2018-09-01T18:01:25.914Z,61.42
2018-09-01T18:03:56.290Z,61.16
2018-09-01T18:06:25.833Z,61.41
2018-09-01T18:08:54.983Z,61.57
2018-09-01T18:11:24.060Z,61.56
2018-09-01T18:13:53.650Z,61.22
2018-09-01T18:16:23.612Z,61.23
2018-09-01T18:18:53.725Z,61.06
2018-09-01T18:21:22.798Z,61.03
2018-09-01T18:23:56.437Z,60.75
2018-09-01T18:26:25.518Z,61.16
2018-09-01T18:28:55.277Z,60.66
2018-09-01T18:31:24.615Z,60.81
2018-09-01T18:33:53.847Z,60.63
2018-09-01T18:36:23.871Z,60.42
2018-09-01T18:38:53.196Z,60.53
2018-09-01T18:41:22.352Z,60.44
2018-09-01T18:43:51.536Z,60.70
2018-09-01T18:46:20.547Z,60.78
2018-09-01T18:48:49.675Z,60.44
2018-09-01T18:51:18.691Z,60.59
2018-09-01T18:53:47.819Z,60.48
2018-09-01T18:56:17.176Z,60.60
2018-09-01T18:58:46.809Z,60.56
2018-09-01T19:01:16.205Z,60.59
2018-09-01T19:03:45.238Z,60.10
2018-09-01T19:06:14.397Z,60.44
2018-09-01T19:08:43.545Z,60.51
2018-09-01T19:11:12.595Z,60.12
2018-09-01T19:13:41.950Z,60.27
2018-09-01T19:16:11.011Z,60.06
2018-09-01T19:18:40.159Z,60.10
2018-09-01T19:21:09.221Z,60.48
2018-09-01T19:23:38.357Z,60.71
2018-09-01T19:26:07.460Z,60.75
2018-09-01T19:28:36.719Z,60.65
2018-09-01T19:31:05.783Z,60.84
2018-09-01T19:33:35.806Z,61.07
2018-09-01T19:36:05.412Z,60.88
2018-09-01T19:38:34.507Z,61.12
2018-09-01T19:41:03.573Z,61.17
2018-09-01T19:43:32.709Z,61.63
2018-09-01T19:46:02.140Z,61.80
2018-09-01T19:48:31.144Z,62.00
2018-09-01T19:51:00.200Z,62.04
2018-09-01T19:53:29.269Z,62.09
2018-09-01T19:55:58.359Z,62.50
2018-09-01T19:58:27.592Z,62.30
2018-09-01T20:00:56.731Z,62.53
2018-09-01T20:03:25.971Z,62.79
2018-09-01T20:05:57.611Z,62.57
2018-09-01T20:08:27.170Z,62.64
2018-09-01T20:10:56.244Z,62.64
2018-09-01T20:13:25.303Z,62.92
2018-09-01T20:15:54.364Z,62.64
2018-09-01T20:18:23.549Z,63.05
2018-09-01T20:20:54.220Z,62.94
2018-09-01T20:23:23.272Z,62.74
2018-09-01T20:25:52.325Z,62.83
2018-09-01T20:28:21.444Z,62.87
2018-09-01T20:30:50.661Z,62.69
2018-09-01T20:33:20.157Z,63.07
2018-09-01T20:35:55.355Z,62.81
2018-09-01T20:38:25.303Z,62.97
2018-09-01T20:40:54.418Z,63.15
2018-09-01T20:43:24.034Z,62.95
2018-09-01T20:45:53.448Z,62.85
2018-09-01T20:48:22.479Z,63.03
2018-09-01T20:50:52.855Z,63.15
2018-09-01T20:53:21.930Z,63.38
2018-09-01T20:55:51.099Z,63.55
2018-09-01T20:58:20.135Z,63.21
2018-09-01T21:00:49.312Z,63.54
2018-09-01T21:03:18.612Z,63.53
2018-09-01T21:05:47.719Z,63.14
2018-09-01T21:08:16.840Z,63.54
2018-09-01T21:10:46.560Z,63.34
2018-09-01T21:13:15.649Z,63.01
2018-09-01T21:15:44.859Z,63.22
2018-09-01T21:18:14.268Z,63.22
2018-09-01T21:20:43.438Z,63.36
2018-09-01T21:23:12.578Z,63.41
2018-09-01T21:25:41.673Z,63.57
2018-09-01T21:28:10.836Z,63.03
2018-09-01T21:30:39.894Z,63.23
2018-09-01T21:33:09.062Z,63.21
2018-09-01T21:35:38.148Z,63.19
2018-09-01T21:38:07.261Z,63.06
2018-09-01T21:40:36.270Z,63.47
2018-09-01T21:43:05.347Z,63.15
2018-09-01T21:45:34.523Z,63.50
2018-09-01T21:48:03.614Z,63.57
2018-09-01T21:50:32.755Z,63.16
2018-09-01T21:53:02.824Z,63.24
2018-09-01T21:55:31.869Z,63.10
2018-09-01T21:58:01.027Z,63.30
2018-09-01T22:00:31.073Z,63.26
2018-09-01T22:03:00.234Z,63.79
2018-09-01T22:05:29.380Z,63.80
2018-09-01T22:07:58.467Z,63.98
2018-09-01T22:10:27.500Z,63.83
2018-09-01T22:12:56.552Z,63.78
2018-09-01T22:15:25.710Z,63.90
2018-09-01T22:18:09.722Z,64.13
2018-09-01T22:20:42.455Z,63.94
2018-09-01T22:23:27.561Z,64.30
2018-09-01T22:26:13.321Z,64.25
2018-09-01T22:28:58.476Z,63.97
2018-09-01T22:31:41.888Z,64.18
2018-09-01T22:34:29.547Z,64.31
2018-09-01T22:36:58.885Z,64.60
2018-09-01T22:39:45.919Z,64.36
2018-09-01T22:42:15.276Z,64.58
2018-09-01T22:44:45.281Z,64.84
2018-09-01T22:47:25.976Z,64.80
2018-09-01T22:50:10.714Z,64.95
2018-09-01T22:52:52.385Z,65.46
2018-09-01T22:55:38.796Z,65.16
2018-09-01T22:58:08.464Z,65.64
2018-09-01T23:00:51.914Z,65.49
2018-09-01T23:03:37.935Z,65.62
2018-09-01T23:06:08.034Z,66.03
2018-09-01T23:08:52.492Z,66.06
2018-09-01T23:11:21.558Z,66.27
2018-09-01T23:13:50.598Z,66.01
2018-09-01T23:16:19.668Z,66.21
2018-09-01T23:18:48.814Z,66.58
2018-09-01T23:21:17.894Z,66.32
2018-09-01T23:23:46.983Z,66.29
2018-09-01T23:26:16.083Z,66.49
2018-09-01T23:28:45.273Z,66.45
2018-09-01T23:31:14.462Z,66.61
2018-09-01T23:33:43.546Z,66.50
2018-09-01T23:36:12.587Z,66.49
2018-09-01T23:38:41.939Z,66.57
2018-09-01T23:41:10.993Z,66.77
2018-09-01T23:43:40.087Z,66.62
2018-09-01T23:46:09.424Z,66.91
2018-09-01T23:48:38.575Z,66.66
2018-09-01T23:51:07.686Z,66.87
2018-09-01T23:53:36.784Z,67.00
2018-09-01T23:56:06.370Z,66.89
2018-09-01T23:58:35.430Z,66.92
